Time;durP1;ratioP1;P1;durP2;ratioP2;P2;SDS_P1;SDS_P2;PMS_P1;PMS_P2;Temp;Humidity;BMP_temperature;BMP_pressure;BME280_temperature;BME280_humidity;BME280_pressure;Samples;Min_cycle;Max_cycle;Signal;HPM_P1;HPM_P2
2022/05/15 00:01:09;;;;;;;22.45;6.47;;;;;;;13.55;61.06;101833.44;5008991;28;119719;-76
2022/05/15 00:03:39;;;;;;;21.60;6.13;;;;;;;13.54;61.20;101829.16;5008729;28;119671;-76
2022/05/15 00:06:05;;;;;;;22.00;6.85;;;;;;;13.51;61.39;101827.28;4974469;28;121452;-75
2022/05/15 00:08:33;;;;;;;22.08;7.05;;;;;;;13.52;61.51;101824.06;5010065;28;119238;-76
2022/05/15 00:11:00;;;;;;;20.80;7.22;;;;;;;13.54;62.07;101831.13;5008878;28;119691;-76
2022/05/15 00:13:27;;;;;;;25.73;7.65;;;;;;;13.55;61.92;101830.69;5014831;27;120318;-75
2022/05/15 00:15:53;;;;;;;24.73;7.95;;;;;;;13.58;62.07;101829.78;5008255;28;119896;-75
2022/05/15 00:18:21;;;;;;;28.73;8.57;;;;;;;13.61;62.63;101836.41;4994347;28;119213;-75
2022/05/15 00:20:49;;;;;;;24.77;8.77;;;;;;;13.60;62.26;101827.38;4987302;28;119549;-75
2022/05/15 00:23:17;;;;;;;30.52;8.90;;;;;;;13.63;62.58;101840.25;4988311;28;120296;-74
2022/05/15 00:25:43;;;;;;;28.88;9.02;;;;;;;13.64;62.57;101839.03;4988738;28;119645;-75
2022/05/15 00:28:09;;;;;;;26.50;9.40;;;;;;;13.67;63.22;101838.16;4989095;28;119565;-76
2022/05/15 00:30:36;;;;;;;25.17;9.68;;;;;;;13.68;62.83;101836.94;4991378;28;119593;-76
2022/05/15 00:33:03;;;;;;;31.95;9.20;;;;;;;13.71;63.13;101832.53;4974025;28;121091;-76
2022/05/15 00:35:29;;;;;;;28.13;9.65;;;;;;;13.71;62.74;101830.53;5009781;28;119890;-76
2022/05/15 00:37:55;;;;;;;23.55;8.90;;;;;;;13.71;63.23;101835.28;4991652;28;119328;-75
2022/05/15 00:40:23;;;;;;;28.05;9.75;;;;;;;13.73;63.23;101832.88;5012161;28;119710;-76
2022/05/15 00:42:49;;;;;;;33.28;9.90;;;;;;;13.73;63.04;101827.34;5009586;28;119638;-76
2022/05/15 00:45:22;;;;;;;28.38;9.45;;;;;;;13.74;63.39;101824.16;5007501;28;119306;-75
2022/05/15 00:47:49;;;;;;;27.07;9.87;;;;;;;13.73;63.17;101836.41;5008341;28;119600;-75
2022/05/15 00:50:23;;;;;;;34.20;11.13;;;;;;;13.72;63.10;101836.81;4980507;28;119425;-76
2022/05/15 00:52:54;;;;;;;32.60;10.77;;;;;;;13.68;63.15;101830.66;5000576;28;119230;-76
2022/05/15 00:55:27;;;;;;;30.15;10.57;;;;;;;13.63;63.17;101833.97;4981298;28;119799;-76
2022/05/15 00:58:08;;;;;;;32.65;10.98;;;;;;;13.57;63.51;101830.25;4999349;28;119954;-76
2022/05/15 01:00:35;;;;;;;35.58;11.73;;;;;;;13.60;63.91;101834.88;4975034;28;119251;-75
2022/05/15 01:03:13;;;;;;;31.45;11.55;;;;;;;13.55;63.65;101829.91;4985526;28;119672;-75
2022/05/15 01:05:47;;;;;;;26.73;11.07;;;;;;;13.54;63.58;101840.16;4986312;28;120060;-75
2022/05/15 01:08:14;;;;;;;28.10;11.27;;;;;;;13.53;63.71;101835.88;4994623;28;119405;-76
2022/05/15 01:10:42;;;;;;;34.08;12.05;;;;;;;13.56;63.78;101839.72;4993817;27;119245;-75
2022/05/15 01:13:11;;;;;;;33.15;11.43;;;;;;;13.59;63.46;101836.06;4976158;28;121236;-74
2022/05/15 01:15:38;;;;;;;31.02;11.77;;;;;;;13.60;63.75;101843.91;4993552;28;119399;-75
2022/05/15 01:18:08;;;;;;;31.95;11.93;;;;;;;13.61;63.41;101839.94;4988465;28;121813;-75
2022/05/15 01:20:34;;;;;;;30.55;11.93;;;;;;;13.63;63.73;101845.00;4999790;28;120154;-75
2022/05/15 01:23:00;;;;;;;29.67;11.60;;;;;;;13.61;63.58;101841.91;4960456;28;119532;-76
2022/05/15 01:25:31;;;;;;;26.73;11.23;;;;;;;13.65;63.17;101848.09;4994820;28;119770;-76
2022/05/15 01:28:08;;;;;;;28.83;10.88;;;;;;;13.62;62.53;101847.00;4990306;28;119706;-76
2022/05/15 01:30:38;;;;;;;28.00;11.27;;;;;;;13.59;62.67;101852.63;4977947;28;119884;-76
2022/05/15 01:33:06;;;;;;;23.90;10.43;;;;;;;13.55;62.41;101844.47;4993456;28;120454;-76
2022/05/15 01:35:34;;;;;;;26.27;9.70;;;;;;;13.45;62.27;101840.81;4994864;28;119734;-74
2022/05/15 01:38:05;;;;;;;28.10;10.57;;;;;;;13.40;62.27;101844.13;4994364;28;119381;-75
2022/05/15 01:40:31;;;;;;;24.70;10.25;;;;;;;13.38;62.10;101851.31;4993908;28;119989;-75
2022/05/15 01:42:59;;;;;;;24.15;10.40;;;;;;;13.34;62.09;101845.91;4994691;28;120674;-75
2022/05/15 01:45:25;;;;;;;20.08;9.65;;;;;;;13.31;62.25;101841.28;4977727;28;122044;-75
2022/05/15 01:47:52;;;;;;;21.45;10.10;;;;;;;13.29;62.08;101840.94;4980944;28;119566;-74
2022/05/15 01:50:18;;;;;;;23.38;9.32;;;;;;;13.28;62.01;101844.91;4994423;28;121752;-75
2022/05/15 01:52:45;;;;;;;26.50;10.07;;;;;;;13.27;61.90;101842.59;5012063;28;119478;-75
2022/05/15 01:55:12;;;;;;;25.50;9.95;;;;;;;13.23;61.71;101839.16;4977890;28;119586;-76
2022/05/15 01:57:43;;;;;;;24.95;10.70;;;;;;;13.21;61.89;101834.09;4993520;28;120105;-76
2022/05/15 02:00:14;;;;;;;24.60;9.93;;;;;;;13.15;62.03;101833.84;4976570;28;123082;-75
2022/05/15 02:02:40;;;;;;;22.88;9.25;;;;;;;13.16;61.87;101838.16;4993414;28;119359;-76
2022/05/15 02:05:09;;;;;;;23.17;9.82;;;;;;;13.13;61.33;101838.25;4999113;28;119694;-76
2022/05/15 02:07:35;;;;;;;24.70;9.98;;;;;;;13.08;61.28;101842.34;5015544;28;119551;-74
2022/05/15 02:10:03;;;;;;;29.58;10.93;;;;;;;13.04;61.03;101843.66;4993234;28;119226;-76
2022/05/15 02:12:28;;;;;;;32.53;15.20;;;;;;;13.00;61.93;101842.97;4993409;28;122387;-76
2022/05/15 02:14:54;;;;;;;47.65;16.55;;;;;;;12.98;62.50;101828.88;4977871;28;119596;-76
2022/05/15 02:17:20;;;;;;;37.00;15.60;;;;;;;13.00;62.90;101842.97;5012362;28;119140;-75
2022/05/15 02:19:45;;;;;;;32.45;14.27;;;;;;;13.03;62.98;101842.13;4993190;28;121245;-76
2022/05/15 02:22:12;;;;;;;33.28;13.85;;;;;;;13.03;63.06;101848.41;5012161;27;120321;-76
2022/05/15 02:24:39;;;;;;;35.92;14.65;;;;;;;13.07;63.18;101851.03;4994157;28;119431;-75
2022/05/15 02:27:07;;;;;;;37.53;15.25;;;;;;;13.08;63.52;101847.84;4961011;28;122016;-75
2022/05/15 02:29:33;;;;;;;35.95;16.38;;;;;;;13.06;63.40;101847.53;4997798;28;119679;-76
2022/05/15 02:31:59;;;;;;;41.70;16.13;;;;;;;13.09;63.12;101845.88;4986513;28;120226;-76
2022/05/15 02:34:25;;;;;;;37.05;16.38;;;;;;;13.10;62.92;101842.66;5010195;28;119541;-75
2022/05/15 02:36:51;;;;;;;36.97;17.33;;;;;;;13.09;63.05;101843.13;5009454;28;119866;-75
2022/05/15 02:39:17;;;;;;;38.20;16.58;;;;;;;13.13;63.18;101857.53;4988790;28;119791;-75
2022/05/15 02:41:43;;;;;;;62.92;18.42;;;;;;;13.06;63.00;101841.25;4990199;28;120066;-75
2022/05/15 02:44:09;;;;;;;60.75;18.48;;;;;;;13.09;63.07;101851.38;4990599;28;119510;-75
2022/05/15 02:46:38;;;;;;;67.90;20.65;;;;;;;13.07;62.99;101849.06;5002579;28;119342;-75
2022/05/15 02:51:48;;;;;;;102.95;18.67;;;;;;;12.97;63.48;101841.88;4992929;28;119799;-76
2022/05/15 02:54:15;;;;;;;49.30;19.08;;;;;;;12.91;63.47;101838.91;4990871;28;119877;-75
2022/05/15 02:56:41;;;;;;;59.80;19.73;;;;;;;12.90;64.07;101847.59;5006348;28;119661;-75
2022/05/15 02:59:07;;;;;;;55.88;19.33;;;;;;;12.87;64.03;101846.50;5009874;28;119912;-74
2022/05/15 03:01:34;;;;;;;36.75;19.00;;;;;;;12.94;64.36;101841.97;5009363;28;119494;-76
2022/05/15 03:04:00;;;;;;;31.50;17.33;;;;;;;12.90;64.32;101845.63;4992761;28;119899;-75
2022/05/15 03:06:26;;;;;;;36.85;17.20;;;;;;;12.95;64.19;101851.78;5011127;28;120267;-76
2022/05/15 03:08:55;;;;;;;32.25;16.85;;;;;;;12.95;63.89;101849.03;5011390;28;119597;-76
2022/05/15 03:11:21;;;;;;;27.95;16.45;;;;;;;12.97;63.76;101860.38;4991222;28;120052;-75
2022/05/15 03:13:46;;;;;;;29.88;17.55;;;;;;;12.97;63.81;101854.88;4977905;28;122041;-75
2022/05/15 03:16:15;;;;;;;40.15;16.88;;;;;;;12.97;63.60;101855.66;4990234;28;119725;-76
2022/05/15 03:18:44;;;;;;;34.65;16.48;;;;;;;12.96;63.27;101856.84;5008715;28;120348;-76
2022/05/15 03:21:12;;;;;;;46.63;16.73;;;;;;;12.94;63.18;101855.75;4983712;28;120069;-74
2022/05/15 03:23:39;;;;;;;38.85;16.02;;;;;;;12.84;63.05;101855.63;4988411;28;119781;-75
2022/05/15 03:26:05;;;;;;;38.65;15.38;;;;;;;12.73;63.22;101846.13;4965256;28;121423;-76
2022/05/15 03:28:31;;;;;;;36.15;16.05;;;;;;;12.73;63.72;101857.13;4991930;28;119257;-76
2022/05/15 03:30:57;;;;;;;32.47;15.45;;;;;;;12.70;63.75;101858.78;4991855;28;119784;-75
2022/05/15 03:33:22;;;;;;;28.85;14.32;;;;;;;12.69;63.61;101854.47;4992772;28;120769;-76
2022/05/15 03:35:48;;;;;;;29.08;14.98;;;;;;;12.70;63.72;101869.03;5029191;27;119623;-75
2022/05/15 03:38:14;;;;;;;30.30;15.95;;;;;;;12.67;63.78;101865.16;5008557;28;119921;-76
2022/05/15 03:40:40;;;;;;;32.75;16.35;;;;;;;12.67;64.36;101864.38;5009978;28;119648;-76
2022/05/15 03:43:06;;;;;;;22.42;15.00;;;;;;;12.72;64.10;101872.88;5009670;28;119375;-75
2022/05/15 03:45:33;;;;;;;27.40;14.07;;;;;;;12.73;64.15;101866.16;5010776;27;119591;-76
2022/05/15 03:47:58;;;;;;;35.00;15.68;;;;;;;12.77;64.07;101875.09;5026097;27;119696;-76
2022/05/15 03:50:26;;;;;;;35.50;15.90;;;;;;;12.82;64.15;101877.31;5011070;28;119551;-75
2022/05/15 03:52:52;;;;;;;32.95;15.40;;;;;;;12.83;64.44;101873.38;5024713;27;119617;-75
2022/05/15 03:55:19;;;;;;;33.33;14.68;;;;;;;12.88;64.34;101872.81;4992688;28;119615;-76
2022/05/15 03:57:45;;;;;;;34.50;15.57;;;;;;;12.92;64.50;101880.97;5012198;28;120194;-76
2022/05/15 04:00:15;;;;;;;38.78;15.60;;;;;;;12.91;64.12;101880.19;5009675;28;119889;-75
2022/05/15 04:02:42;;;;;;;51.35;14.30;;;;;;;12.85;64.35;101881.97;5007492;27;119379;-75
2022/05/15 04:05:10;;;;;;;49.55;15.05;;;;;;;12.86;64.38;101882.72;4975524;28;122575;-74
2022/05/15 04:07:48;;;;;;;72.55;14.75;;;;;;;12.84;64.48;101883.16;4992596;28;119627;-74
2022/05/15 04:10:16;;;;;;;47.30;14.20;;;;;;;12.84;64.87;101883.16;4975592;28;120139;-75
2022/05/15 04:12:42;;;;;;;35.35;14.43;;;;;;;12.87;65.19;101882.28;4975310;28;121976;-75
2022/05/15 04:15:09;;;;;;;25.05;13.38;;;;;;;12.90;65.20;101889.69;5006338;28;119920;-76
2022/05/15 04:17:40;;;;;;;39.53;13.40;;;;;;;12.97;64.97;101896.94;4995148;28;119439;-76
2022/05/15 04:20:06;;;;;;;27.42;12.70;;;;;;;13.00;65.07;101906.31;4992235;28;119211;-76
2022/05/15 04:22:33;;;;;;;24.80;13.70;;;;;;;13.04;65.21;101907.00;5009209;27;119295;-76
2022/05/15 04:24:59;;;;;;;28.88;14.90;;;;;;;13.09;65.37;101900.97;4991737;28;123350;-76
2022/05/15 04:27:25;;;;;;;30.13;14.40;;;;;;;13.12;65.46;101911.09;5009233;28;119455;-76
2022/05/15 04:29:52;;;;;;;30.67;15.10;;;;;;;13.15;65.53;101915.72;4992076;28;119483;-76
2022/05/15 04:32:18;;;;;;;34.75;15.75;;;;;;;13.21;65.34;101919.50;4990769;28;119832;-76
2022/05/15 04:34:43;;;;;;;28.90;15.00;;;;;;;13.26;65.06;101916.22;5007815;28;119472;-76
2022/05/15 04:37:09;;;;;;;24.90;14.07;;;;;;;13.31;65.48;101917.66;5008350;28;120118;-76
2022/05/15 04:39:35;;;;;;;29.63;14.70;;;;;;;13.35;65.20;101921.09;5013883;28;119516;-75
2022/05/15 04:42:01;;;;;;;31.02;15.30;;;;;;;13.45;65.32;101928.25;5009652;28;119653;-75
2022/05/15 04:44:27;;;;;;;28.83;14.80;;;;;;;13.50;65.26;101922.97;5010012;28;119648;-76
2022/05/15 04:46:53;;;;;;;29.98;15.30;;;;;;;13.57;65.75;101926.72;5009841;28;119881;-76
2022/05/15 04:49:19;;;;;;;26.80;14.30;;;;;;;13.66;65.73;101937.84;4992020;28;119603;-75
2022/05/15 04:51:44;;;;;;;27.85;13.57;;;;;;;13.69;65.17;101934.22;4991023;28;121106;-76
2022/05/15 04:54:10;;;;;;;28.85;14.25;;;;;;;13.72;65.50;101936.88;5009978;28;119561;-76
2022/05/15 04:56:36;;;;;;;30.58;14.13;;;;;;;13.73;65.51;101932.16;5008548;28;119916;-76
2022/05/15 04:59:02;;;;;;;29.50;13.50;;;;;;;13.81;65.44;101938.97;5008621;28;119963;-75
2022/05/15 05:01:28;;;;;;;27.35;13.60;;;;;;;13.90;65.98;101941.81;5014016;27;119708;-76
2022/05/15 05:03:55;;;;;;;30.20;14.27;;;;;;;13.99;65.69;101944.69;5007938;28;121370;-76
2022/05/15 05:06:21;;;;;;;29.45;13.95;;;;;;;14.06;65.91;101944.47;4991828;28;119610;-76
2022/05/15 05:08:49;;;;;;;29.67;13.48;;;;;;;14.16;66.16;101947.31;4991865;28;119738;-75
2022/05/15 05:11:15;;;;;;;34.13;13.75;;;;;;;14.25;65.86;101952.94;5009509;28;119682;-76
2022/05/15 05:13:41;;;;;;;34.28;14.00;;;;;;;14.34;65.92;101953.00;4991500;28;119680;-76
2022/05/15 05:16:07;;;;;;;29.58;14.07;;;;;;;14.42;66.17;101957.06;5010230;28;119847;-76
2022/05/15 05:18:33;;;;;;;28.23;12.88;;;;;;;14.49;65.60;101951.34;5008121;28;119369;-75
2022/05/15 05:20:58;;;;;;;34.60;14.32;;;;;;;14.56;65.39;101950.34;4991605;28;119580;-75
2022/05/15 05:23:24;;;;;;;30.83;13.95;;;;;;;14.63;65.64;101959.13;5012881;28;119418;-75
2022/05/15 05:25:49;;;;;;;27.08;12.48;;;;;;;14.70;65.54;101961.66;4991789;28;119521;-75
2022/05/15 05:28:16;;;;;;;31.98;13.10;;;;;;;14.78;65.24;101966.94;4975067;28;119262;-75
2022/05/15 05:30:42;;;;;;;31.67;12.70;;;;;;;14.85;65.66;101963.91;4990825;28;121639;-76
2022/05/15 05:33:08;;;;;;;32.47;12.88;;;;;;;14.91;65.39;101962.13;5008752;28;120010;-76
2022/05/15 05:35:35;;;;;;;37.58;11.68;;;;;;;14.95;64.83;101973.81;4992883;28;119788;-75
2022/05/15 05:38:01;;;;;;;28.75;12.07;;;;;;;14.97;65.17;101963.88;5012375;28;120044;-76
2022/05/15 05:40:29;;;;;;;35.60;12.18;;;;;;;15.03;65.25;101962.06;5011484;28;119485;-75
2022/05/15 05:42:55;;;;;;;34.80;12.23;;;;;;;15.14;64.89;101969.97;4994854;28;119303;-74
2022/05/15 05:45:24;;;;;;;30.25;11.07;;;;;;;15.20;65.03;101970.16;5014707;28;121596;-76
2022/05/15 05:47:50;;;;;;;34.97;11.10;;;;;;;15.30;65.16;101983.56;5012285;28;119601;-76
2022/05/15 05:50:19;;;;;;;37.30;11.20;;;;;;;15.35;64.74;101976.69;4994501;28;121104;-76
2022/05/15 05:52:45;;;;;;;28.33;10.90;;;;;;;15.40;64.14;101987.19;4991141;28;120033;-76
2022/05/15 05:55:14;;;;;;;29.38;10.05;;;;;;;15.45;64.43;101983.06;4974982;28;122032;-76
2022/05/15 05:57:41;;;;;;;35.40;10.90;;;;;;;15.49;64.42;101986.44;4973985;28;122696;-74
2022/05/15 06:00:10;;;;;;;31.50;9.75;;;;;;;15.50;63.85;101982.47;4958170;28;120045;-76
2022/05/15 06:02:38;;;;;;;27.60;10.23;;;;;;;15.53;64.42;101985.09;4990410;28;119718;-76
2022/05/15 06:05:04;;;;;;;29.08;9.80;;;;;;;15.62;63.95;101992.72;4990828;28;120242;-76
2022/05/15 06:07:29;;;;;;;29.52;9.93;;;;;;;15.64;63.51;101996.56;4978007;28;119362;-76
2022/05/15 06:09:55;;;;;;;35.72;10.63;;;;;;;15.68;63.25;101985.34;4991893;28;120368;-76
2022/05/15 06:12:23;;;;;;;34.92;10.77;;;;;;;15.70;63.32;101987.66;5010071;28;119291;-76
2022/05/15 06:14:50;;;;;;;30.77;10.73;;;;;;;15.73;63.53;101986.75;5012390;28;119395;-75
2022/05/15 06:17:23;;;;;;;31.65;9.52;;;;;;;15.77;63.36;101982.63;5009606;28;120197;-76
2022/05/15 06:19:50;;;;;;;30.33;9.32;;;;;;;15.83;63.17;101980.78;5012492;28;119544;-75
2022/05/15 06:22:16;;;;;;;36.38;9.65;;;;;;;15.89;62.50;101989.28;5012492;28;119740;-76
2022/05/15 06:24:42;;;;;;;29.67;9.57;;;;;;;15.88;62.12;101982.97;4993687;28;119428;-76
2022/05/15 06:27:09;;;;;;;33.08;9.65;;;;;;;15.94;62.26;101983.16;4998261;28;119382;-75
2022/05/15 06:29:37;;;;;;;33.45;9.75;;;;;;;16.01;62.25;101991.16;5011359;28;120967;-76
2022/05/15 06:32:03;;;;;;;30.80;9.77;;;;;;;16.06;61.65;101989.78;5010762;28;119730;-76
2022/05/15 06:34:30;;;;;;;31.45;8.95;;;;;;;16.05;61.48;101993.78;4993632;28;119692;-74
2022/05/15 06:36:56;;;;;;;30.70;8.63;;;;;;;16.05;62.17;101993.78;4976840;28;119740;-75
2022/05/15 06:39:22;;;;;;;35.35;9.95;;;;;;;16.13;61.76;101995.06;5011876;28;119232;-75
2022/05/15 06:41:50;;;;;;;24.77;8.60;;;;;;;16.14;62.00;101982.75;4994035;28;120493;-75
2022/05/15 06:44:17;;;;;;;29.35;8.98;;;;;;;16.23;61.46;101985.53;4992702;28;121103;-75
2022/05/15 06:46:44;;;;;;;26.55;7.88;;;;;;;16.25;61.86;101985.84;4992294;28;119387;-76
2022/05/15 06:49:09;;;;;;;23.48;8.38;;;;;;;16.25;61.98;101972.00;5015448;28;119553;-76
2022/05/15 06:51:35;;;;;;;23.15;8.52;;;;;;;16.34;61.74;101983.13;5011387;27;119742;-76
2022/05/15 06:54:00;;;;;;;26.67;7.68;;;;;;;16.30;60.81;101976.16;4993800;28;120370;-76
2022/05/15 06:59:10;;;;;;;21.27;7.15;;;;;;;16.41;60.64;101993.88;5011825;28;119353;-76
2022/05/15 07:01:36;;;;;;;29.55;8.70;;;;;;;16.45;60.47;101991.72;5011171;28;119317;-76
2022/05/15 07:04:05;;;;;;;25.38;7.57;;;;;;;16.51;60.69;101989.13;5009337;28;120370;-76
2022/05/15 07:06:31;;;;;;;28.98;7.70;;;;;;;16.56;60.22;101991.28;5011166;28;119653;-76
2022/05/15 07:08:57;;;;;;;24.45;7.63;;;;;;;16.62;60.63;101995.00;5011576;28;120040;-75
2022/05/15 07:11:23;;;;;;;24.65;8.88;;;;;;;16.72;60.32;101995.78;4996594;28;120266;-76
2022/05/15 07:13:49;;;;;;;31.92;8.07;;;;;;;16.72;59.76;101981.94;4993593;28;119382;-75
2022/05/15 07:16:15;;;;;;;26.98;7.70;;;;;;;16.85;58.94;101997.19;5010922;28;120003;-75
2022/05/15 07:18:41;;;;;;;29.08;7.43;;;;;;;16.88;59.53;102001.81;5009737;27;119385;-76
2022/05/15 07:21:08;;;;;;;33.47;7.63;;;;;;;16.98;59.56;101999.00;5011471;28;119509;-76
2022/05/15 07:23:34;;;;;;;22.63;7.03;;;;;;;17.03;59.58;101990.84;5010135;28;120220;-76
2022/05/15 07:26:00;;;;;;;27.10;7.20;;;;;;;17.08;59.88;101997.78;5011526;28;119548;-76
2022/05/15 07:28:26;;;;;;;22.17;6.93;;;;;;;17.12;59.27;101993.63;5011143;28;119628;-76
2022/05/15 07:30:51;;;;;;;25.20;8.05;;;;;;;17.19;59.14;102001.63;5008781;28;120179;-75
2022/05/15 07:33:25;;;;;;;26.88;7.63;;;;;;;17.21;58.71;102000.38;4979798;28;119370;-76
2022/05/15 07:35:59;;;;;;;28.65;8.13;;;;;;;17.21;58.25;101995.59;4992280;28;119384;-76
2022/05/15 07:38:28;;;;;;;24.52;7.05;;;;;;;17.17;58.38;101995.75;4993085;28;119461;-76
2022/05/15 07:40:54;;;;;;;27.17;8.30;;;;;;;17.12;58.48;101982.53;5011151;28;119419;-76
2022/05/15 07:43:20;;;;;;;24.92;7.63;;;;;;;17.15;58.92;101991.91;5010342;27;119872;-76
2022/05/15 07:45:46;;;;;;;26.20;7.78;;;;;;;17.17;59.27;101989.44;5010924;28;119669;-76
2022/05/15 07:48:12;;;;;;;21.55;7.07;;;;;;;17.28;59.52;101988.97;5010326;28;119515;-76
2022/05/15 07:50:38;;;;;;;26.38;7.63;;;;;;;17.39;59.43;101992.03;4992482;28;119675;-75
2022/05/15 07:53:05;;;;;;;18.58;6.78;;;;;;;17.43;58.98;101992.63;5010468;28;120118;-76
2022/05/15 07:55:30;;;;;;;24.80;6.78;;;;;;;17.47;58.96;101996.00;5013137;28;119475;-75
2022/05/15 07:57:56;;;;;;;19.80;6.78;;;;;;;17.54;58.42;101995.69;5008787;28;119854;-76
2022/05/15 08:00:22;;;;;;;23.30;7.72;;;;;;;17.60;58.00;101993.81;5010190;28;120226;-76
2022/05/15 08:02:48;;;;;;;31.70;7.35;;;;;;;17.68;58.24;102003.38;5007843;28;119604;-76
2022/05/15 08:08:09;;;;;;;23.90;6.88;;;;;;;17.73;58.16;102002.72;5009291;28;121207;-75
2022/05/15 08:10:38;;;;;;;23.02;6.47;;;;;;;17.75;57.02;102003.06;4991836;28;120258;-75
2022/05/15 08:13:05;;;;;;;19.33;6.78;;;;;;;17.79;57.11;101994.56;5002492;28;119716;-76
2022/05/15 08:15:32;;;;;;;22.83;7.25;;;;;;;17.82;57.31;101998.41;4995405;28;119455;-75
2022/05/15 08:23:34;;;;;;;20.35;7.28;;;;;;;18.09;57.36;102007.38;4991013;28;121192;-76
2022/05/15 08:26:00;;;;;;;20.60;6.88;;;;;;;18.21;57.38;102002.81;4991947;28;119946;-76
2022/05/15 08:28:29;;;;;;;22.23;6.43;;;;;;;18.33;57.00;102003.84;5009556;28;119546;-76
2022/05/15 08:30:54;;;;;;;19.27;6.15;;;;;;;18.38;56.03;102000.41;5005105;28;120066;-75
2022/05/15 08:33:20;;;;;;;25.88;6.05;;;;;;;18.47;55.93;101996.81;4997622;28;119691;-75
2022/05/15 08:35:46;;;;;;;20.20;5.65;;;;;;;18.50;56.25;102002.19;5008595;28;120313;-75
2022/05/15 08:38:11;;;;;;;23.38;6.40;;;;;;;18.56;56.34;101996.75;5011948;28;119932;-76
2022/05/15 08:40:59;;;;;;;23.52;7.15;;;;;;;18.65;56.21;101993.91;5009600;28;119826;-76
2022/05/15 08:43:43;;;;;;;23.98;5.88;;;;;;;18.70;55.53;101988.50;5005052;28;121251;-76
2022/05/15 08:46:36;;;;;;;22.50;6.63;;;;;;;18.75;55.71;101987.06;4998500;28;119637;-76
2022/05/15 08:49:08;;;;;;;16.90;5.32;;;;;;;18.79;55.72;101993.19;5009299;28;119947;-76
2022/05/15 08:51:34;;;;;;;21.85;6.32;;;;;;;18.86;55.09;101986.50;5009337;28;120025;-76
2022/05/15 08:54:04;;;;;;;21.73;6.05;;;;;;;18.91;54.34;101981.03;5009717;28;119755;-76
2022/05/15 08:56:45;;;;;;;20.70;5.90;;;;;;;18.95;55.04;101989.97;4971902;28;120794;-76
2022/05/15 08:59:20;;;;;;;18.45;5.90;;;;;;;19.01;55.07;101978.94;5005438;28;120309;-76
2022/05/15 09:01:49;;;;;;;22.60;5.72;;;;;;;19.08;54.51;101972.22;4994881;28;119562;-75
2022/05/15 09:04:14;;;;;;;21.30;6.03;;;;;;;19.12;54.76;101975.59;5008792;28;120574;-76
2022/05/15 09:07:09;;;;;;;23.58;6.45;;;;;;;19.23;54.86;101984.16;5007980;28;119988;-76
2022/05/15 09:09:51;;;;;;;16.60;5.55;;;;;;;19.29;54.57;101985.78;5007212;28;119557;-76
2022/05/15 09:12:23;;;;;;;20.13;5.40;;;;;;;19.31;53.76;101986.06;4990353;28;122271;-76
2022/05/15 09:15:00;;;;;;;15.38;5.25;;;;;;;19.37;53.87;101975.00;5012134;28;119932;-76
2022/05/15 09:18:00;;;;;;;20.70;5.90;;;;;;;19.50;54.42;101981.06;5012490;28;120018;-76
2022/05/15 09:20:42;;;;;;;19.45;5.75;;;;;;;19.58;54.32;101979.44;5008103;28;121048;-76
2022/05/15 09:23:35;;;;;;;14.48;5.22;;;;;;;19.67;54.32;101973.00;5010676;27;119920;-76
2022/05/15 09:26:40;;;;;;;16.92;5.38;;;;;;;19.76;53.91;101986.03;4997847;28;121185;-76
2022/05/15 09:29:15;;;;;;;21.27;5.60;;;;;;;19.79;53.42;101982.28;4978901;28;119568;-76
2022/05/15 09:31:42;;;;;;;18.35;5.43;;;;;;;19.81;51.84;101971.44;5010971;27;119665;-76
2022/05/15 09:34:26;;;;;;;22.15;5.88;;;;;;;19.83;51.34;101968.94;5011188;28;121152;-76
2022/05/15 09:39:45;;;;;;;21.23;5.72;;;;;;;19.94;53.30;101974.66;4963554;28;119864;-76
2022/05/15 09:45:17;;;;;;;16.15;5.25;;;;;;;20.04;52.42;101964.94;4997696;28;119630;-76
2022/05/15 09:47:58;;;;;;;17.60;5.45;;;;;;;20.04;53.01;101967.72;5009294;27;120089;-77
2022/05/15 09:50:47;;;;;;;19.30;5.63;;;;;;;20.14;53.02;101965.59;5011634;28;121237;-76
2022/05/15 09:53:30;;;;;;;19.85;5.00;;;;;;;20.18;51.88;101964.13;4986249;28;119710;-76
2022/05/15 09:56:06;;;;;;;14.48;4.40;;;;;;;20.24;52.33;101956.59;5010373;28;120033;-76
2022/05/15 09:58:46;;;;;;;17.40;4.97;;;;;;;20.32;52.10;101951.34;5008049;28;120227;-76
2022/05/15 10:01:20;;;;;;;17.23;5.18;;;;;;;20.41;52.33;101964.44;4990605;28;120322;-76
2022/05/15 10:03:52;;;;;;;17.60;4.68;;;;;;;20.50;52.70;101964.28;5008600;28;119564;-75
2022/05/15 10:06:21;;;;;;;20.15;5.00;;;;;;;20.59;52.52;101961.38;5009191;28;119986;-76
2022/05/15 10:09:09;;;;;;;17.15;5.03;;;;;;;20.67;51.89;101962.44;5008786;28;119599;-77
2022/05/15 10:11:37;;;;;;;15.48;4.95;;;;;;;20.80;51.39;101962.84;5005309;28;119821;-76
2022/05/15 10:14:07;;;;;;;17.13;4.68;;;;;;;20.91;50.24;101953.06;5014784;28;119664;-76
2022/05/15 10:16:46;;;;;;;14.73;5.07;;;;;;;20.96;50.61;101957.94;4975526;28;122152;-76
2022/05/15 10:19:20;;;;;;;16.80;4.40;;;;;;;21.02;50.33;101947.59;4979641;28;120044;-76
2022/05/15 10:21:50;;;;;;;12.82;4.70;;;;;;;21.10;50.08;101948.69;5002384;27;120561;-76
2022/05/15 10:24:25;;;;;;;12.48;3.83;;;;;;;21.19;49.78;101956.88;4990063;28;122631;-76
2022/05/15 10:27:19;;;;;;;14.68;4.03;;;;;;;21.24;49.58;101950.59;5006124;28;120051;-76
2022/05/15 10:30:00;;;;;;;18.30;4.78;;;;;;;21.24;48.06;101953.41;5010083;28;119485;-76
2022/05/15 10:33:11;;;;;;;13.23;3.63;;;;;;;21.21;48.12;101957.16;5003117;28;119467;-76
2022/05/15 10:36:01;;;;;;;10.57;3.58;;;;;;;21.25;48.06;101951.38;4892570;28;120174;-76
2022/05/15 10:38:54;;;;;;;13.57;4.10;;;;;;;21.28;48.47;101951.13;4999259;28;120073;-76
2022/05/15 10:41:34;;;;;;;8.90;3.28;;;;;;;21.34;46.86;101946.41;4988815;28;119969;-76
2022/05/15 10:44:09;;;;;;;12.75;3.47;;;;;;;21.36;47.20;101938.28;5006084;28;120155;-76
2022/05/15 10:46:37;;;;;;;14.35;3.25;;;;;;;21.34;47.49;101940.03;5009434;28;121477;-76
2022/05/15 10:49:25;;;;;;;16.77;5.38;;;;;;;21.34;46.96;101934.47;4992705;28;120017;-76
2022/05/15 10:51:59;;;;;;;15.05;4.65;;;;;;;21.32;47.53;101932.16;5008851;27;119963;-75
2022/05/15 10:57:55;;;;;;;12.82;3.40;;;;;;;21.39;47.55;101939.31;4992360;28;119419;-76
2022/05/15 11:00:43;;;;;;;11.00;2.88;;;;;;;21.28;47.33;101930.84;4995503;28;119928;-76
2022/05/15 11:03:28;;;;;;;11.30;3.03;;;;;;;21.22;46.26;101933.56;4988527;28;119933;-76
2022/05/15 11:06:12;;;;;;;12.30;3.72;;;;;;;21.16;47.26;101929.97;5009373;28;120682;-76
2022/05/15 11:08:43;;;;;;;;;;;;;;;21.08;47.90;101934.47;5008155;28;120034;-75
2022/05/15 11:11:34;;;;;;;12.48;3.67;;;;;;;20.99;47.92;101926.25;5004067;28;119547;-76
2022/05/15 11:14:15;;;;;;;13.07;3.50;;;;;;;20.98;47.28;101928.28;5007736;28;119574;-76
2022/05/15 11:16:41;;;;;;;12.60;3.20;;;;;;;20.96;46.58;101921.66;5009392;28;119676;-76
2022/05/15 11:19:32;;;;;;;12.70;3.83;;;;;;;21.01;47.03;101915.38;5008554;28;120233;-76
2022/05/15 11:22:31;;;;;;;11.98;3.70;;;;;;;21.09;47.31;101924.84;5008004;27;119953;-76
2022/05/15 11:25:18;;;;;;;10.07;2.97;;;;;;;21.18;48.06;101915.53;5009661;28;120220;-76
2022/05/15 11:27:57;;;;;;;10.95;3.65;;;;;;;21.22;47.72;101922.41;5003460;28;120425;-77
2022/05/15 11:30:39;;;;;;;12.02;3.30;;;;;;;21.30;46.96;101912.38;4995817;28;120220;-76
2022/05/15 11:33:09;;;;;;;8.15;2.78;;;;;;;21.39;46.93;101908.63;5007548;28;119872;-77
2022/05/15 11:36:11;;;;;;;10.77;2.60;;;;;;;21.50;46.59;101911.47;4991884;28;119906;-77
2022/05/15 11:39:07;;;;;;;6.72;1.95;;;;;;;21.56;45.72;101906.72;4988770;28;121308;-76
2022/05/15 11:41:35;;;;;;;8.02;2.58;;;;;;;21.62;45.63;101909.53;5007906;28;119757;-77
2022/05/15 11:44:05;;;;;;;7.50;2.00;;;;;;;21.65;44.91;101905.75;4971938;28;121484;-77